sensor_id;sensor_type;location;lat;lon;timestamp;pressure;altitude;pressure_sealevel;temperature
58929;BMP180;44713;53.378;10.022;2022-08-25T00:01:29;101839.00;;;21.00
58929;BMP180;44713;53.378;10.022;2022-08-25T00:03:56;101847.00;;;20.90
58929;BMP180;44713;53.378;10.022;2022-08-25T00:06:22;101846.00;;;20.90
58929;BMP180;44713;53.378;10.022;2022-08-25T00:08:48;101846.00;;;20.90
58929;BMP180;44713;53.378;10.022;2022-08-25T00:11:20;101835.00;;;20.80
58929;BMP180;44713;53.378;10.022;2022-08-25T00:13:50;101839.00;;;20.80
58929;BMP180;44713;53.378;10.022;2022-08-25T00:16:17;101842.00;;;20.80
58929;BMP180;44713;53.378;10.022;2022-08-25T00:18:46;101836.00;;;20.70
58929;BMP180;44713;53.378;10.022;2022-08-25T00:21:13;101833.00;;;20.80
58929;BMP180;44713;53.378;10.022;2022-08-25T00:23:40;101833.00;;;20.70
58929;BMP180;44713;53.378;10.022;2022-08-25T00:26:06;101831.00;;;20.70
58929;BMP180;44713;53.378;10.022;2022-08-25T00:28:32;101837.00;;;20.70
58929;BMP180;44713;53.378;10.022;2022-08-25T00:30:58;101836.00;;;20.70
58929;BMP180;44713;53.378;10.022;2022-08-25T00:33:26;101835.00;;;20.70
58929;BMP180;44713;53.378;10.022;2022-08-25T00:35:52;101841.00;;;20.70
58929;BMP180;44713;53.378;10.022;2022-08-25T00:38:17;101842.00;;;20.60
58929;BMP180;44713;53.378;10.022;2022-08-25T00:40:43;101829.00;;;20.60
58929;BMP180;44713;53.378;10.022;2022-08-25T00:43:09;101841.00;;;20.50
58929;BMP180;44713;53.378;10.022;2022-08-25T00:45:35;101844.00;;;20.50
58929;BMP180;44713;53.378;10.022;2022-08-25T00:48:01;101845.00;;;20.50
58929;BMP180;44713;53.378;10.022;2022-08-25T00:50:32;101838.00;;;20.60
58929;BMP180;44713;53.378;10.022;2022-08-25T00:53:01;101828.00;;;20.50
58929;BMP180;44713;53.378;10.022;2022-08-25T00:55:33;101833.00;;;20.50
58929;BMP180;44713;53.378;10.022;2022-08-25T00:58:08;101828.00;;;20.50
58929;BMP180;44713;53.378;10.022;2022-08-25T01:00:42;101836.00;;;20.50
58929;BMP180;44713;53.378;10.022;2022-08-25T01:03:09;101824.00;;;20.40
58929;BMP180;44713;53.378;10.022;2022-08-25T01:05:35;101837.00;;;20.40
58929;BMP180;44713;53.378;10.022;2022-08-25T01:08:01;101824.00;;;20.30
58929;BMP180;44713;53.378;10.022;2022-08-25T01:10:29;101826.00;;;20.30
58929;BMP180;44713;53.378;10.022;2022-08-25T01:13:00;101826.00;;;20.30
58929;BMP180;44713;53.378;10.022;2022-08-25T01:15:27;101832.00;;;20.30
58929;BMP180;44713;53.378;10.022;2022-08-25T01:17:56;101825.00;;;20.20
58929;BMP180;44713;53.378;10.022;2022-08-25T01:20:23;101825.00;;;20.20
58929;BMP180;44713;53.378;10.022;2022-08-25T01:22:50;101835.00;;;20.10
58929;BMP180;44713;53.378;10.022;2022-08-25T01:28:00;101823.00;;;20.10
58929;BMP180;44713;53.378;10.022;2022-08-25T01:30:26;101824.00;;;20.10
58929;BMP180;44713;53.378;10.022;2022-08-25T01:32:52;101834.00;;;20.10
58929;BMP180;44713;53.378;10.022;2022-08-25T01:35:17;101836.00;;;20.10
58929;BMP180;44713;53.378;10.022;2022-08-25T01:37:43;101833.00;;;20.00
58929;BMP180;44713;53.378;10.022;2022-08-25T01:40:09;101834.00;;;20.10
58929;BMP180;44713;53.378;10.022;2022-08-25T01:45:13;101841.00;;;20.00
58929;BMP180;44713;53.378;10.022;2022-08-25T01:47:38;101842.00;;;20.00
58929;BMP180;44713;53.378;10.022;2022-08-25T01:50:05;101841.00;;;19.90
58929;BMP180;44713;53.378;10.022;2022-08-25T01:52:58;101839.00;;;20.00
58929;BMP180;44713;53.378;10.022;2022-08-25T01:55:24;101848.00;;;19.80
58929;BMP180;44713;53.378;10.022;2022-08-25T01:57:50;101844.00;;;19.80
58929;BMP180;44713;53.378;10.022;2022-08-25T02:00:16;101843.00;;;19.80
58929;BMP180;44713;53.378;10.022;2022-08-25T02:02:44;101843.00;;;19.80
58929;BMP180;44713;53.378;10.022;2022-08-25T02:05:12;101844.00;;;19.80
58929;BMP180;44713;53.378;10.022;2022-08-25T02:07:38;101842.00;;;19.80
58929;BMP180;44713;53.378;10.022;2022-08-25T02:10:06;101844.00;;;19.70
58929;BMP180;44713;53.378;10.022;2022-08-25T02:12:32;101840.00;;;19.70
58929;BMP180;44713;53.378;10.022;2022-08-25T02:14:59;101845.00;;;19.60
58929;BMP180;44713;53.378;10.022;2022-08-25T02:17:26;101841.00;;;19.70
58929;BMP180;44713;53.378;10.022;2022-08-25T02:19:52;101835.00;;;19.70
58929;BMP180;44713;53.378;10.022;2022-08-25T02:22:17;101838.00;;;19.70
58929;BMP180;44713;53.378;10.022;2022-08-25T02:24:43;101839.00;;;19.70
58929;BMP180;44713;53.378;10.022;2022-08-25T02:27:08;101828.00;;;19.60
58929;BMP180;44713;53.378;10.022;2022-08-25T02:29:35;101833.00;;;19.60
58929;BMP180;44713;53.378;10.022;2022-08-25T02:32:01;101836.00;;;19.60
58929;BMP180;44713;53.378;10.022;2022-08-25T02:34:27;101838.00;;;19.50
58929;BMP180;44713;53.378;10.022;2022-08-25T02:36:52;101840.00;;;19.60
58929;BMP180;44713;53.378;10.022;2022-08-25T02:39:17;101837.00;;;19.60
58929;BMP180;44713;53.378;10.022;2022-08-25T02:41:43;101834.00;;;19.50
58929;BMP180;44713;53.378;10.022;2022-08-25T02:44:08;101835.00;;;19.50
58929;BMP180;44713;53.378;10.022;2022-08-25T02:46:35;101826.00;;;19.50
58929;BMP180;44713;53.378;10.022;2022-08-25T02:49:00;101823.00;;;19.40
58929;BMP180;44713;53.378;10.022;2022-08-25T02:51:26;101827.00;;;19.50
58929;BMP180;44713;53.378;10.022;2022-08-25T02:53:57;101822.00;;;19.50
58929;BMP180;44713;53.378;10.022;2022-08-25T02:56:23;101820.00;;;19.60
58929;BMP180;44713;53.378;10.022;2022-08-25T02:58:49;101823.00;;;19.50
58929;BMP180;44713;53.378;10.022;2022-08-25T03:01:15;101819.00;;;19.40
58929;BMP180;44713;53.378;10.022;2022-08-25T03:03:42;101823.00;;;19.50
58929;BMP180;44713;53.378;10.022;2022-08-25T03:06:10;101820.00;;;19.40
58929;BMP180;44713;53.378;10.022;2022-08-25T03:08:36;101820.00;;;19.40
58929;BMP180;44713;53.378;10.022;2022-08-25T03:11:02;101821.00;;;19.30
58929;BMP180;44713;53.378;10.022;2022-08-25T03:13:28;101812.00;;;19.20
58929;BMP180;44713;53.378;10.022;2022-08-25T03:15:53;101815.00;;;19.30
58929;BMP180;44713;53.378;10.022;2022-08-25T03:18:19;101815.00;;;19.20
58929;BMP180;44713;53.378;10.022;2022-08-25T03:20:44;101823.00;;;19.10
58929;BMP180;44713;53.378;10.022;2022-08-25T03:23:11;101824.00;;;19.20
58929;BMP180;44713;53.378;10.022;2022-08-25T03:25:39;101817.00;;;19.20
58929;BMP180;44713;53.378;10.022;2022-08-25T03:28:23;101819.00;;;19.10
58929;BMP180;44713;53.378;10.022;2022-08-25T03:30:49;101815.00;;;19.10
58929;BMP180;44713;53.378;10.022;2022-08-25T03:33:14;101807.00;;;19.20
58929;BMP180;44713;53.378;10.022;2022-08-25T03:35:40;101802.00;;;19.30
58929;BMP180;44713;53.378;10.022;2022-08-25T03:38:05;101803.00;;;19.30
58929;BMP180;44713;53.378;10.022;2022-08-25T03:40:31;101804.00;;;19.20
58929;BMP180;44713;53.378;10.022;2022-08-25T03:42:57;101804.00;;;19.20
58929;BMP180;44713;53.378;10.022;2022-08-25T03:45:23;101800.00;;;19.10
58929;BMP180;44713;53.378;10.022;2022-08-25T03:47:50;101804.00;;;19.00
58929;BMP180;44713;53.378;10.022;2022-08-25T03:50:17;101802.00;;;18.90
58929;BMP180;44713;53.378;10.022;2022-08-25T03:52:43;101802.00;;;19.00
58929;BMP180;44713;53.378;10.022;2022-08-25T03:55:11;101797.00;;;19.10
58929;BMP180;44713;53.378;10.022;2022-08-25T03:57:38;101791.00;;;19.10
58929;BMP180;44713;53.378;10.022;2022-08-25T04:00:08;101802.00;;;19.00
58929;BMP180;44713;53.378;10.022;2022-08-25T04:02:37;101800.00;;;19.00
58929;BMP180;44713;53.378;10.022;2022-08-25T04:05:03;101801.00;;;19.10
58929;BMP180;44713;53.378;10.022;2022-08-25T04:07:29;101797.00;;;19.00
58929;BMP180;44713;53.378;10.022;2022-08-25T04:09:54;101796.00;;;18.90
58929;BMP180;44713;53.378;10.022;2022-08-25T04:12:20;101798.00;;;18.90
58929;BMP180;44713;53.378;10.022;2022-08-25T04:14:46;101805.00;;;18.90
58929;BMP180;44713;53.378;10.022;2022-08-25T04:17:12;101806.00;;;18.90
58929;BMP180;44713;53.378;10.022;2022-08-25T04:19:38;101797.00;;;18.90
58929;BMP180;44713;53.378;10.022;2022-08-25T04:22:03;101800.00;;;18.70
58929;BMP180;44713;53.378;10.022;2022-08-25T04:24:29;101800.00;;;18.70
58929;BMP180;44713;53.378;10.022;2022-08-25T04:26:54;101800.00;;;18.70
58929;BMP180;44713;53.378;10.022;2022-08-25T04:29:22;101797.00;;;18.70
58929;BMP180;44713;53.378;10.022;2022-08-25T04:31:48;101810.00;;;18.60
58929;BMP180;44713;53.378;10.022;2022-08-25T04:34:17;101812.00;;;18.60
58929;BMP180;44713;53.378;10.022;2022-08-25T04:36:43;101817.00;;;18.60
58929;BMP180;44713;53.378;10.022;2022-08-25T04:39:08;101808.00;;;18.60
58929;BMP180;44713;53.378;10.022;2022-08-25T04:41:34;101815.00;;;18.60
58929;BMP180;44713;53.378;10.022;2022-08-25T04:44:00;101819.00;;;18.60
58929;BMP180;44713;53.378;10.022;2022-08-25T04:46:30;101813.00;;;18.60
58929;BMP180;44713;53.378;10.022;2022-08-25T04:48:57;101815.00;;;18.60
58929;BMP180;44713;53.378;10.022;2022-08-25T04:51:30;101822.00;;;18.50
58929;BMP180;44713;53.378;10.022;2022-08-25T04:54:02;101811.00;;;18.60
58929;BMP180;44713;53.378;10.022;2022-08-25T04:56:29;101810.00;;;18.70
58929;BMP180;44713;53.378;10.022;2022-08-25T04:58:54;101809.00;;;18.70
58929;BMP180;44713;53.378;10.022;2022-08-25T05:01:22;101815.00;;;18.80
58929;BMP180;44713;53.378;10.022;2022-08-25T05:03:53;101814.00;;;18.80
58929;BMP180;44713;53.378;10.022;2022-08-25T05:06:19;101808.00;;;18.70
58929;BMP180;44713;53.378;10.022;2022-08-25T05:08:44;101806.00;;;18.90
58929;BMP180;44713;53.378;10.022;2022-08-25T05:11:12;101803.00;;;18.90
58929;BMP180;44713;53.378;10.022;2022-08-25T05:13:39;101806.00;;;18.90
58929;BMP180;44713;53.378;10.022;2022-08-25T05:16:05;101801.00;;;18.90
58929;BMP180;44713;53.378;10.022;2022-08-25T05:18:32;101803.00;;;18.90
58929;BMP180;44713;53.378;10.022;2022-08-25T05:21:05;101800.00;;;18.90
58929;BMP180;44713;53.378;10.022;2022-08-25T05:23:30;101798.00;;;18.90
58929;BMP180;44713;53.378;10.022;2022-08-25T05:26:02;101792.00;;;19.00
58929;BMP180;44713;53.378;10.022;2022-08-25T05:28:27;101794.00;;;19.00
58929;BMP180;44713;53.378;10.022;2022-08-25T05:30:57;101804.00;;;19.00
58929;BMP180;44713;53.378;10.022;2022-08-25T05:33:23;101795.00;;;19.00
58929;BMP180;44713;53.378;10.022;2022-08-25T05:35:48;101789.00;;;19.00
58929;BMP180;44713;53.378;10.022;2022-08-25T05:38:14;101794.00;;;19.00
58929;BMP180;44713;53.378;10.022;2022-08-25T05:40:39;101795.00;;;19.00
58929;BMP180;44713;53.378;10.022;2022-08-25T05:43:05;101798.00;;;19.00
58929;BMP180;44713;53.378;10.022;2022-08-25T05:45:30;101796.00;;;19.10
58929;BMP180;44713;53.378;10.022;2022-08-25T05:47:55;101798.00;;;19.10
58929;BMP180;44713;53.378;10.022;2022-08-25T05:50:22;101801.00;;;19.20
58929;BMP180;44713;53.378;10.022;2022-08-25T05:52:47;101810.00;;;19.20
58929;BMP180;44713;53.378;10.022;2022-08-25T05:55:12;101799.00;;;19.20
58929;BMP180;44713;53.378;10.022;2022-08-25T05:57:39;101804.00;;;19.10
58929;BMP180;44713;53.378;10.022;2022-08-25T06:00:05;101798.00;;;19.20
58929;BMP180;44713;53.378;10.022;2022-08-25T06:02:38;101804.00;;;19.20
58929;BMP180;44713;53.378;10.022;2022-08-25T06:05:16;101810.00;;;19.30
58929;BMP180;44713;53.378;10.022;2022-08-25T06:07:42;101806.00;;;19.30
58929;BMP180;44713;53.378;10.022;2022-08-25T06:10:08;101805.00;;;19.40
58929;BMP180;44713;53.378;10.022;2022-08-25T06:12:39;101793.00;;;19.20
58929;BMP180;44713;53.378;10.022;2022-08-25T06:15:06;101792.00;;;19.20
58929;BMP180;44713;53.378;10.022;2022-08-25T06:17:31;101790.00;;;19.20
58929;BMP180;44713;53.378;10.022;2022-08-25T06:19:57;101795.00;;;19.20
58929;BMP180;44713;53.378;10.022;2022-08-25T06:22:22;101792.00;;;19.10
58929;BMP180;44713;53.378;10.022;2022-08-25T06:24:50;101794.00;;;19.10
58929;BMP180;44713;53.378;10.022;2022-08-25T06:27:15;101796.00;;;19.20
58929;BMP180;44713;53.378;10.022;2022-08-25T06:29:41;101791.00;;;19.10
58929;BMP180;44713;53.378;10.022;2022-08-25T06:32:06;101792.00;;;19.10
58929;BMP180;44713;53.378;10.022;2022-08-25T06:34:32;101787.00;;;19.20
58929;BMP180;44713;53.378;10.022;2022-08-25T06:36:58;101791.00;;;19.30
58929;BMP180;44713;53.378;10.022;2022-08-25T06:39:23;101787.00;;;19.30
58929;BMP180;44713;53.378;10.022;2022-08-25T06:41:51;101786.00;;;19.30
58929;BMP180;44713;53.378;10.022;2022-08-25T06:44:17;101787.00;;;19.30
58929;BMP180;44713;53.378;10.022;2022-08-25T06:46:42;101790.00;;;19.30
58929;BMP180;44713;53.378;10.022;2022-08-25T06:49:07;101787.00;;;19.20
58929;BMP180;44713;53.378;10.022;2022-08-25T06:51:33;101794.00;;;19.20
58929;BMP180;44713;53.378;10.022;2022-08-25T06:54:00;101788.00;;;19.30
58929;BMP180;44713;53.378;10.022;2022-08-25T06:56:25;101789.00;;;19.20
58929;BMP180;44713;53.378;10.022;2022-08-25T06:58:51;101802.00;;;19.20
58929;BMP180;44713;53.378;10.022;2022-08-25T07:01:22;101801.00;;;19.20
58929;BMP180;44713;53.378;10.022;2022-08-25T07:03:50;101807.00;;;19.20
58929;BMP180;44713;53.378;10.022;2022-08-25T07:06:16;101804.00;;;19.30
58929;BMP180;44713;53.378;10.022;2022-08-25T07:08:43;101818.00;;;19.30
58929;BMP180;44713;53.378;10.022;2022-08-25T07:11:09;101806.00;;;19.30
58929;BMP180;44713;53.378;10.022;2022-08-25T07:13:35;101808.00;;;19.30
58929;BMP180;44713;53.378;10.022;2022-08-25T07:16:01;101798.00;;;19.30
58929;BMP180;44713;53.378;10.022;2022-08-25T07:18:27;101790.00;;;19.50
58929;BMP180;44713;53.378;10.022;2022-08-25T07:20:53;101804.00;;;19.50
58929;BMP180;44713;53.378;10.022;2022-08-25T07:23:21;101808.00;;;19.50
58929;BMP180;44713;53.378;10.022;2022-08-25T07:25:46;101803.00;;;19.60
58929;BMP180;44713;53.378;10.022;2022-08-25T07:28:13;101793.00;;;19.60
58929;BMP180;44713;53.378;10.022;2022-08-25T07:30:39;101796.00;;;19.60
58929;BMP180;44713;53.378;10.022;2022-08-25T07:33:04;101793.00;;;19.70
58929;BMP180;44713;53.378;10.022;2022-08-25T07:35:29;101800.00;;;19.60
58929;BMP180;44713;53.378;10.022;2022-08-25T07:37:57;101794.00;;;19.70
58929;BMP180;44713;53.378;10.022;2022-08-25T07:40:34;101801.00;;;19.70
58929;BMP180;44713;53.378;10.022;2022-08-25T07:43:04;101808.00;;;19.90
58929;BMP180;44713;53.378;10.022;2022-08-25T07:45:33;101808.00;;;19.90
58929;BMP180;44713;53.378;10.022;2022-08-25T07:48:01;101814.00;;;20.00
58929;BMP180;44713;53.378;10.022;2022-08-25T07:50:28;101801.00;;;20.10
58929;BMP180;44713;53.378;10.022;2022-08-25T07:52:54;101806.00;;;20.20
58929;BMP180;44713;53.378;10.022;2022-08-25T07:55:20;101800.00;;;20.10
58929;BMP180;44713;53.378;10.022;2022-08-25T07:57:45;101798.00;;;20.00
58929;BMP180;44713;53.378;10.022;2022-08-25T08:00:13;101798.00;;;20.10
58929;BMP180;44713;53.378;10.022;2022-08-25T08:02:40;101807.00;;;20.20
58929;BMP180;44713;53.378;10.022;2022-08-25T08:05:07;101804.00;;;20.20
58929;BMP180;44713;53.378;10.022;2022-08-25T08:07:33;101795.00;;;20.20
58929;BMP180;44713;53.378;10.022;2022-08-25T08:09:58;101807.00;;;20.30
58929;BMP180;44713;53.378;10.022;2022-08-25T08:12:24;101809.00;;;20.40
58929;BMP180;44713;53.378;10.022;2022-08-25T08:14:51;101810.00;;;20.40
58929;BMP180;44713;53.378;10.022;2022-08-25T08:17:17;101803.00;;;20.50
58929;BMP180;44713;53.378;10.022;2022-08-25T08:19:43;101805.00;;;20.40
58929;BMP180;44713;53.378;10.022;2022-08-25T08:22:08;101804.00;;;20.50
58929;BMP180;44713;53.378;10.022;2022-08-25T08:24:35;101803.00;;;20.60
58929;BMP180;44713;53.378;10.022;2022-08-25T08:27:05;101808.00;;;20.60
58929;BMP180;44713;53.378;10.022;2022-08-25T08:29:31;101797.00;;;20.60
58929;BMP180;44713;53.378;10.022;2022-08-25T08:31:57;101797.00;;;20.70
58929;BMP180;44713;53.378;10.022;2022-08-25T08:34:22;101794.00;;;20.70
58929;BMP180;44713;53.378;10.022;2022-08-25T08:36:48;101792.00;;;20.80
58929;BMP180;44713;53.378;10.022;2022-08-25T08:39:13;101796.00;;;20.70
58929;BMP180;44713;53.378;10.022;2022-08-25T08:41:45;101789.00;;;20.80
58929;BMP180;44713;53.378;10.022;2022-08-25T08:47:04;101798.00;;;20.90
58929;BMP180;44713;53.378;10.022;2022-08-25T08:49:48;101801.00;;;21.00
58929;BMP180;44713;53.378;10.022;2022-08-25T08:52:18;101796.00;;;21.10
58929;BMP180;44713;53.378;10.022;2022-08-25T08:54:49;101793.00;;;21.20
58929;BMP180;44713;53.378;10.022;2022-08-25T08:57:21;101791.00;;;21.20
58929;BMP180;44713;53.378;10.022;2022-08-25T08:59:54;101785.00;;;21.10
58929;BMP180;44713;53.378;10.022;2022-08-25T09:02:34;101781.00;;;21.10
58929;BMP180;44713;53.378;10.022;2022-08-25T09:05:07;101788.00;;;21.20
58929;BMP180;44713;53.378;10.022;2022-08-25T09:07:38;101783.00;;;21.30
58929;BMP180;44713;53.378;10.022;2022-08-25T09:10:04;101778.00;;;21.30
58929;BMP180;44713;53.378;10.022;2022-08-25T09:12:43;101784.00;;;21.40
58929;BMP180;44713;53.378;10.022;2022-08-25T09:18:47;101775.00;;;21.50
58929;BMP180;44713;53.378;10.022;2022-08-25T09:24:22;101775.00;;;21.50
58929;BMP180;44713;53.378;10.022;2022-08-25T09:27:14;101769.00;;;21.50
58929;BMP180;44713;53.378;10.022;2022-08-25T09:29:58;101771.00;;;21.60
58929;BMP180;44713;53.378;10.022;2022-08-25T09:32:27;101763.00;;;21.70
58929;BMP180;44713;53.378;10.022;2022-08-25T09:34:53;101766.00;;;21.70
58929;BMP180;44713;53.378;10.022;2022-08-25T09:37:21;101768.00;;;21.80
58929;BMP180;44713;53.378;10.022;2022-08-25T09:39:47;101766.00;;;21.90
58929;BMP180;44713;53.378;10.022;2022-08-25T09:42:13;101766.00;;;22.10
58929;BMP180;44713;53.378;10.022;2022-08-25T09:44:41;101765.00;;;22.30
58929;BMP180;44713;53.378;10.022;2022-08-25T09:49:45;101763.00;;;22.30
58929;BMP180;44713;53.378;10.022;2022-08-25T09:52:35;101762.00;;;22.30
58929;BMP180;44713;53.378;10.022;2022-08-25T09:57:35;101745.00;;;22.50
58929;BMP180;44713;53.378;10.022;2022-08-25T10:00:23;101741.00;;;22.60
58929;BMP180;44713;53.378;10.022;2022-08-25T10:05:56;101721.00;;;23.30
58929;BMP180;44713;53.378;10.022;2022-08-25T10:10:57;101726.00;;;24.00
58929;BMP180;44713;53.378;10.022;2022-08-25T10:13:35;101719.00;;;24.30
58929;BMP180;44713;53.378;10.022;2022-08-25T10:16:22;101724.00;;;24.80
58929;BMP180;44713;53.378;10.022;2022-08-25T10:19:06;101717.00;;;25.00
58929;BMP180;44713;53.378;10.022;2022-08-25T10:21:33;101715.00;;;25.30
58929;BMP180;44713;53.378;10.022;2022-08-25T10:23:59;101708.00;;;25.50
58929;BMP180;44713;53.378;10.022;2022-08-25T10:32:25;101715.00;;;26.10
58929;BMP180;44713;53.378;10.022;2022-08-25T10:34:58;101706.00;;;26.40
58929;BMP180;44713;53.378;10.022;2022-08-25T10:37:42;101693.00;;;26.70
58929;BMP180;44713;53.378;10.022;2022-08-25T10:40:18;101693.00;;;26.90
58929;BMP180;44713;53.378;10.022;2022-08-25T10:45:37;101680.00;;;27.20
58929;BMP180;44713;53.378;10.022;2022-08-25T10:51:45;101666.00;;;27.20
58929;BMP180;44713;53.378;10.022;2022-08-25T10:54:35;101666.00;;;27.20
58929;BMP180;44713;53.378;10.022;2022-08-25T10:59:59;101663.00;;;27.90
58929;BMP180;44713;53.378;10.022;2022-08-25T11:02:51;101653.00;;;28.20
58929;BMP180;44713;53.378;10.022;2022-08-25T11:06:03;101650.00;;;28.60
58929;BMP180;44713;53.378;10.022;2022-08-25T11:11:12;101641.00;;;28.70
58929;BMP180;44713;53.378;10.022;2022-08-25T11:13:45;101632.00;;;29.00
58929;BMP180;44713;53.378;10.022;2022-08-25T11:16:39;101633.00;;;29.20
58929;BMP180;44713;53.378;10.022;2022-08-25T11:19:18;101632.00;;;29.40
58929;BMP180;44713;53.378;10.022;2022-08-25T11:26:58;101631.00;;;29.50
58929;BMP180;44713;53.378;10.022;2022-08-25T11:29:28;101627.00;;;29.60
58929;BMP180;44713;53.378;10.022;2022-08-25T11:31:57;101624.00;;;29.60
58929;BMP180;44713;53.378;10.022;2022-08-25T11:34:24;101623.00;;;29.70
58929;BMP180;44713;53.378;10.022;2022-08-25T11:37:10;101628.00;;;29.20
58929;BMP180;44713;53.378;10.022;2022-08-25T11:48:09;101599.00;;;29.50
58929;BMP180;44713;53.378;10.022;2022-08-25T11:50:57;101596.00;;;30.00
58929;BMP180;44713;53.378;10.022;2022-08-25T11:53:26;101600.00;;;30.10
58929;BMP180;44713;53.378;10.022;2022-08-25T11:55:55;101598.00;;;30.00
58929;BMP180;44713;53.378;10.022;2022-08-25T11:58:45;101598.00;;;30.20
58929;BMP180;44713;53.378;10.022;2022-08-25T12:04:30;101587.00;;;30.60
58929;BMP180;44713;53.378;10.022;2022-08-25T12:12:29;101586.00;;;30.10
58929;BMP180;44713;53.378;10.022;2022-08-25T12:25:52;101576.00;;;29.70
58929;BMP180;44713;53.378;10.022;2022-08-25T12:28:36;101570.00;;;29.50
58929;BMP180;44713;53.378;10.022;2022-08-25T12:31:15;101561.00;;;29.60
58929;BMP180;44713;53.378;10.022;2022-08-25T12:34:01;101571.00;;;30.00
58929;BMP180;44713;53.378;10.022;2022-08-25T12:36:32;101568.00;;;30.40
58929;BMP180;44713;53.378;10.022;2022-08-25T12:39:18;101570.00;;;30.50
58929;BMP180;44713;53.378;10.022;2022-08-25T12:44:36;101547.00;;;31.50
58929;BMP180;44713;53.378;10.022;2022-08-25T12:47:25;101548.00;;;31.70
58929;BMP180;44713;53.378;10.022;2022-08-25T12:49:52;101542.00;;;31.70
58929;BMP180;44713;53.378;10.022;2022-08-25T12:52:21;101538.00;;;31.90
58929;BMP180;44713;53.378;10.022;2022-08-25T12:54:53;101547.00;;;31.20
58929;BMP180;44713;53.378;10.022;2022-08-25T12:57:39;101553.00;;;31.00
58929;BMP180;44713;53.378;10.022;2022-08-25T13:00:27;101548.00;;;30.70
58929;BMP180;44713;53.378;10.022;2022-08-25T13:11:06;101517.00;;;31.10
58929;BMP180;44713;53.378;10.022;2022-08-25T13:13:36;101510.00;;;31.40
58929;BMP180;44713;53.378;10.022;2022-08-25T13:16:15;101514.00;;;31.50
58929;BMP180;44713;53.378;10.022;2022-08-25T13:18:41;101515.00;;;31.80
58929;BMP180;44713;53.378;10.022;2022-08-25T13:23:47;101503.00;;;30.90
58929;BMP180;44713;53.378;10.022;2022-08-25T13:26:16;101503.00;;;30.70
58929;BMP180;44713;53.378;10.022;2022-08-25T13:28:52;101504.00;;;30.30
58929;BMP180;44713;53.378;10.022;2022-08-25T13:31:19;101489.00;;;30.50
58929;BMP180;44713;53.378;10.022;2022-08-25T13:34:16;101491.00;;;31.00
58929;BMP180;44713;53.378;10.022;2022-08-25T13:36:44;101485.00;;;31.50
58929;BMP180;44713;53.378;10.022;2022-08-25T13:39:28;101487.00;;;32.10
58929;BMP180;44713;53.378;10.022;2022-08-25T13:41:56;101489.00;;;32.10
58929;BMP180;44713;53.378;10.022;2022-08-25T13:44:28;101485.00;;;32.20
58929;BMP180;44713;53.378;10.022;2022-08-25T13:49:37;101483.00;;;32.20
58929;BMP180;44713;53.378;10.022;2022-08-25T13:52:03;101481.00;;;32.30
58929;BMP180;44713;53.378;10.022;2022-08-25T13:54:34;101477.00;;;32.60
58929;BMP180;44713;53.378;10.022;2022-08-25T13:59:40;101469.00;;;32.80
58929;BMP180;44713;53.378;10.022;2022-08-25T14:02:09;101473.00;;;33.00
58929;BMP180;44713;53.378;10.022;2022-08-25T14:09:48;101471.00;;;32.40
58929;BMP180;44713;53.378;10.022;2022-08-25T14:12:26;101464.00;;;32.70
58929;BMP180;44713;53.378;10.022;2022-08-25T14:15:04;101467.00;;;33.10
58929;BMP180;44713;53.378;10.022;2022-08-25T14:17:31;101462.00;;;33.10
58929;BMP180;44713;53.378;10.022;2022-08-25T14:19:57;101464.00;;;32.90
58929;BMP180;44713;53.378;10.022;2022-08-25T14:22:22;101456.00;;;33.00
58929;BMP180;44713;53.378;10.022;2022-08-25T14:24:50;101459.00;;;33.10
58929;BMP180;44713;53.378;10.022;2022-08-25T14:27:16;101459.00;;;33.00
58929;BMP180;44713;53.378;10.022;2022-08-25T14:29:43;101459.00;;;33.20
58929;BMP180;44713;53.378;10.022;2022-08-25T14:32:09;101447.00;;;33.10
58929;BMP180;44713;53.378;10.022;2022-08-25T14:34:35;101445.00;;;33.20
58929;BMP180;44713;53.378;10.022;2022-08-25T14:37:10;101442.00;;;33.50
58929;BMP180;44713;53.378;10.022;2022-08-25T14:39:36;101441.00;;;33.60
58929;BMP180;44713;53.378;10.022;2022-08-25T14:42:01;101441.00;;;33.70
58929;BMP180;44713;53.378;10.022;2022-08-25T14:44:27;101443.00;;;33.60
58929;BMP180;44713;53.378;10.022;2022-08-25T14:46:54;101438.00;;;33.20
58929;BMP180;44713;53.378;10.022;2022-08-25T14:49:23;101430.00;;;33.00
58929;BMP180;44713;53.378;10.022;2022-08-25T14:51:51;101433.00;;;33.00
58929;BMP180;44713;53.378;10.022;2022-08-25T14:54:18;101429.00;;;32.90
58929;BMP180;44713;53.378;10.022;2022-08-25T14:56:46;101429.00;;;32.90
58929;BMP180;44713;53.378;10.022;2022-08-25T14:59:12;101424.00;;;32.90
58929;BMP180;44713;53.378;10.022;2022-08-25T15:01:38;101419.00;;;32.70
58929;BMP180;44713;53.378;10.022;2022-08-25T15:04:07;101420.00;;;32.70
58929;BMP180;44713;53.378;10.022;2022-08-25T15:06:35;101416.00;;;32.50
58929;BMP180;44713;53.378;10.022;2022-08-25T15:09:01;101417.00;;;32.30
58929;BMP180;44713;53.378;10.022;2022-08-25T15:11:44;101404.00;;;32.30
58929;BMP180;44713;53.378;10.022;2022-08-25T15:14:11;101406.00;;;32.30
58929;BMP180;44713;53.378;10.022;2022-08-25T15:16:42;101397.00;;;32.40
58929;BMP180;44713;53.378;10.022;2022-08-25T15:19:10;101398.00;;;32.40
58929;BMP180;44713;53.378;10.022;2022-08-25T15:21:39;101401.00;;;32.40
58929;BMP180;44713;53.378;10.022;2022-08-25T15:24:05;101400.00;;;32.10
58929;BMP180;44713;53.378;10.022;2022-08-25T15:26:33;101398.00;;;31.80
58929;BMP180;44713;53.378;10.022;2022-08-25T15:29:01;101391.00;;;31.70
58929;BMP180;44713;53.378;10.022;2022-08-25T15:31:26;101392.00;;;31.60
58929;BMP180;44713;53.378;10.022;2022-08-25T15:33:52;101390.00;;;31.30
58929;BMP180;44713;53.378;10.022;2022-08-25T15:36:18;101390.00;;;31.30